7W4

Lake Anna Airport

Bumpass, Virginia, USA
METAR K7W4 230915Z AUTO 00000KT 10SM CLR 06/04 A3038 RMK AO1 T00620038
Observed Flight Rules
Apr-23 @ 09:15 UTC (14 minutes ago) Visual Flight Rules
Visibility Clouds
10 miles
  • Clear skies
Temperatures Readings
Current 6°C / 43°F
Dewpoint 4°C / 39°F
Humidity 87%
Altimeter 30.38" Hg
Pressure 1029 hPa
Elevation 106
METAR K7W4 230915Z AUTO 00000KT 10SM CLR 06/04 A3038 RMK AO1 T00620038
Observed Flight Rules
Apr-23 @ 09:15 UTC
(14 minutes ago)
VFR
Clouds
  • Clear skies
Temperature Dewpoint
6°C / 43°F 4°C / 39°F
Humidity Altimeter Pressure
87% 30.38" Hg 1029 hPa